sensor_id;sensor_type;location;lat;lon;timestamp;P1;durP1;ratioP1;P2;durP2;ratioP2
44048;SDS011;29717;47.028;15.470;2023-07-13T00:00:19;2.72;;;1.20;;
44048;SDS011;29717;47.028;15.470;2023-07-13T00:02:47;1.40;;;1.30;;
44048;SDS011;29717;47.028;15.470;2023-07-13T00:05:15;2.42;;;1.50;;
44048;SDS011;29717;47.028;15.470;2023-07-13T00:07:42;6.22;;;1.58;;
44048;SDS011;29717;47.028;15.470;2023-07-13T00:10:10;4.80;;;1.42;;
44048;SDS011;29717;47.028;15.470;2023-07-13T00:12:37;2.50;;;1.80;;
44048;SDS011;29717;47.028;15.470;2023-07-13T00:15:05;2.08;;;1.50;;
44048;SDS011;29717;47.028;15.470;2023-07-13T00:17:33;2.42;;;1.40;;
44048;SDS011;29717;47.028;15.470;2023-07-13T00:19:59;3.40;;;1.45;;
44048;SDS011;29717;47.028;15.470;2023-07-13T00:22:30;3.67;;;1.50;;
44048;SDS011;29717;47.028;15.470;2023-07-13T00:24:57;1.85;;;1.15;;
44048;SDS011;29717;47.028;15.470;2023-07-13T00:27:23;1.58;;;1.48;;
44048;SDS011;29717;47.028;15.470;2023-07-13T00:29:52;1.35;;;1.23;;
44048;SDS011;29717;47.028;15.470;2023-07-13T00:32:18;3.85;;;1.30;;
44048;SDS011;29717;47.028;15.470;2023-07-13T00:34:45;2.70;;;1.20;;
44048;SDS011;29717;47.028;15.470;2023-07-13T00:37:12;2.65;;;1.23;;
44048;SDS011;29717;47.028;15.470;2023-07-13T00:39:40;2.58;;;1.30;;
44048;SDS011;29717;47.028;15.470;2023-07-13T00:42:07;1.33;;;1.10;;
44048;SDS011;29717;47.028;15.470;2023-07-13T00:44:34;2.33;;;1.20;;
44048;SDS011;29717;47.028;15.470;2023-07-13T00:47:00;1.92;;;1.65;;
44048;SDS011;29717;47.028;15.470;2023-07-13T00:49:28;1.42;;;1.25;;
44048;SDS011;29717;47.028;15.470;2023-07-13T00:51:57;2.58;;;1.38;;
44048;SDS011;29717;47.028;15.470;2023-07-13T00:54:26;0.98;;;0.85;;
44048;SDS011;29717;47.028;15.470;2023-07-13T00:56:55;1.30;;;1.15;;
44048;SDS011;29717;47.028;15.470;2023-07-13T00:59:24;1.85;;;1.08;;
44048;SDS011;29717;47.028;15.470;2023-07-13T01:01:51;1.48;;;1.10;;
44048;SDS011;29717;47.028;15.470;2023-07-13T01:04:17;3.00;;;1.40;;
44048;SDS011;29717;47.028;15.470;2023-07-13T01:06:44;2.53;;;1.30;;
44048;SDS011;29717;47.028;15.470;2023-07-13T01:09:12;2.63;;;1.08;;
44048;SDS011;29717;47.028;15.470;2023-07-13T01:11:39;1.52;;;1.40;;
44048;SDS011;29717;47.028;15.470;2023-07-13T01:14:07;2.70;;;1.50;;
44048;SDS011;29717;47.028;15.470;2023-07-13T01:16:35;1.25;;;1.10;;
44048;SDS011;29717;47.028;15.470;2023-07-13T01:19:03;3.60;;;0.95;;
44048;SDS011;29717;47.028;15.470;2023-07-13T01:21:35;2.83;;;1.10;;
44048;SDS011;29717;47.028;15.470;2023-07-13T01:24:03;2.85;;;1.20;;
44048;SDS011;29717;47.028;15.470;2023-07-13T01:26:30;1.25;;;1.15;;
44048;SDS011;29717;47.028;15.470;2023-07-13T01:28:56;1.80;;;1.20;;
44048;SDS011;29717;47.028;15.470;2023-07-13T01:31:23;1.20;;;1.00;;
44048;SDS011;29717;47.028;15.470;2023-07-13T01:33:50;2.00;;;1.15;;
44048;SDS011;29717;47.028;15.470;2023-07-13T01:36:17;4.72;;;1.05;;
44048;SDS011;29717;47.028;15.470;2023-07-13T01:38:47;2.65;;;1.30;;
44048;SDS011;29717;47.028;15.470;2023-07-13T01:41:14;2.95;;;1.50;;
44048;SDS011;29717;47.028;15.470;2023-07-13T01:43:41;4.55;;;1.90;;
44048;SDS011;29717;47.028;15.470;2023-07-13T01:46:07;2.38;;;1.40;;
44048;SDS011;29717;47.028;15.470;2023-07-13T01:48:34;2.22;;;1.38;;
44048;SDS011;29717;47.028;15.470;2023-07-13T01:51:00;5.45;;;2.10;;
44048;SDS011;29717;47.028;15.470;2023-07-13T01:53:27;1.75;;;1.55;;
44048;SDS011;29717;47.028;15.470;2023-07-13T01:55:55;5.60;;;1.70;;
44048;SDS011;29717;47.028;15.470;2023-07-13T01:58:22;1.92;;;0.88;;
44048;SDS011;29717;47.028;15.470;2023-07-13T02:00:49;3.58;;;1.92;;
44048;SDS011;29717;47.028;15.470;2023-07-13T02:03:16;5.45;;;1.85;;
44048;SDS011;29717;47.028;15.470;2023-07-13T02:05:43;2.67;;;1.70;;
44048;SDS011;29717;47.028;15.470;2023-07-13T02:08:10;5.70;;;2.33;;
44048;SDS011;29717;47.028;15.470;2023-07-13T02:10:37;7.10;;;2.28;;
44048;SDS011;29717;47.028;15.470;2023-07-13T02:13:05;3.60;;;1.83;;
44048;SDS011;29717;47.028;15.470;2023-07-13T02:15:32;3.17;;;2.13;;
44048;SDS011;29717;47.028;15.470;2023-07-13T02:17:58;3.22;;;2.00;;
44048;SDS011;29717;47.028;15.470;2023-07-13T02:20:25;4.30;;;2.00;;
44048;SDS011;29717;47.028;15.470;2023-07-13T02:22:52;4.05;;;2.30;;
44048;SDS011;29717;47.028;15.470;2023-07-13T02:25:19;3.85;;;1.92;;
44048;SDS011;29717;47.028;15.470;2023-07-13T02:27:45;3.88;;;2.10;;
44048;SDS011;29717;47.028;15.470;2023-07-13T02:30:13;3.53;;;2.00;;
44048;SDS011;29717;47.028;15.470;2023-07-13T02:32:40;4.57;;;2.22;;
44048;SDS011;29717;47.028;15.470;2023-07-13T02:35:07;3.50;;;2.00;;
44048;SDS011;29717;47.028;15.470;2023-07-13T02:37:34;6.63;;;2.40;;
44048;SDS011;29717;47.028;15.470;2023-07-13T02:40:00;3.75;;;2.40;;
44048;SDS011;29717;47.028;15.470;2023-07-13T02:42:33;5.25;;;2.13;;
44048;SDS011;29717;47.028;15.470;2023-07-13T02:45:00;7.47;;;2.47;;
44048;SDS011;29717;47.028;15.470;2023-07-13T02:47:28;5.13;;;2.13;;
44048;SDS011;29717;47.028;15.470;2023-07-13T02:49:54;4.47;;;2.40;;
44048;SDS011;29717;47.028;15.470;2023-07-13T02:52:21;4.43;;;2.20;;
44048;SDS011;29717;47.028;15.470;2023-07-13T02:54:48;2.92;;;2.03;;
44048;SDS011;29717;47.028;15.470;2023-07-13T02:57:14;2.97;;;1.95;;
44048;SDS011;29717;47.028;15.470;2023-07-13T02:59:41;3.55;;;2.20;;
44048;SDS011;29717;47.028;15.470;2023-07-13T03:02:08;2.53;;;2.13;;
44048;SDS011;29717;47.028;15.470;2023-07-13T03:04:36;3.53;;;1.90;;
44048;SDS011;29717;47.028;15.470;2023-07-13T03:07:04;3.22;;;2.30;;
44048;SDS011;29717;47.028;15.470;2023-07-13T03:09:32;3.65;;;2.33;;
44048;SDS011;29717;47.028;15.470;2023-07-13T03:11:59;2.80;;;2.22;;
44048;SDS011;29717;47.028;15.470;2023-07-13T03:14:26;4.00;;;2.50;;
44048;SDS011;29717;47.028;15.470;2023-07-13T03:16:53;3.90;;;2.63;;
44048;SDS011;29717;47.028;15.470;2023-07-13T03:19:19;4.78;;;3.10;;
44048;SDS011;29717;47.028;15.470;2023-07-13T03:21:47;4.72;;;2.88;;
44048;SDS011;29717;47.028;15.470;2023-07-13T03:24:14;5.95;;;2.72;;
44048;SDS011;29717;47.028;15.470;2023-07-13T03:26:41;7.53;;;2.72;;
44048;SDS011;29717;47.028;15.470;2023-07-13T03:29:08;6.78;;;3.05;;
44048;SDS011;29717;47.028;15.470;2023-07-13T03:31:35;5.50;;;2.65;;
44048;SDS011;29717;47.028;15.470;2023-07-13T03:34:03;4.22;;;2.47;;
44048;SDS011;29717;47.028;15.470;2023-07-13T03:36:31;3.85;;;2.30;;
44048;SDS011;29717;47.028;15.470;2023-07-13T03:39:01;3.70;;;2.67;;
44048;SDS011;29717;47.028;15.470;2023-07-13T03:41:28;5.38;;;3.05;;
44048;SDS011;29717;47.028;15.470;2023-07-13T03:43:55;8.07;;;3.00;;
44048;SDS011;29717;47.028;15.470;2023-07-13T03:46:22;2.55;;;2.35;;
44048;SDS011;29717;47.028;15.470;2023-07-13T03:48:49;6.60;;;3.10;;
44048;SDS011;29717;47.028;15.470;2023-07-13T03:51:16;4.32;;;3.17;;
44048;SDS011;29717;47.028;15.470;2023-07-13T03:53:43;4.32;;;2.97;;
44048;SDS011;29717;47.028;15.470;2023-07-13T03:56:11;5.18;;;2.83;;
44048;SDS011;29717;47.028;15.470;2023-07-13T03:58:40;3.42;;;2.92;;
44048;SDS011;29717;47.028;15.470;2023-07-13T04:01:08;6.63;;;2.72;;
44048;SDS011;29717;47.028;15.470;2023-07-13T04:03:35;5.63;;;2.90;;
44048;SDS011;29717;47.028;15.470;2023-07-13T04:06:03;4.50;;;3.05;;
44048;SDS011;29717;47.028;15.470;2023-07-13T04:08:31;4.28;;;2.72;;
44048;SDS011;29717;47.028;15.470;2023-07-13T04:10:58;7.10;;;3.17;;
44048;SDS011;29717;47.028;15.470;2023-07-13T04:13:26;5.38;;;2.85;;
44048;SDS011;29717;47.028;15.470;2023-07-13T04:15:53;6.60;;;3.05;;
44048;SDS011;29717;47.028;15.470;2023-07-13T04:18:20;4.75;;;2.90;;
44048;SDS011;29717;47.028;15.470;2023-07-13T04:20:47;5.57;;;2.60;;
44048;SDS011;29717;47.028;15.470;2023-07-13T04:23:14;6.30;;;2.85;;
44048;SDS011;29717;47.028;15.470;2023-07-13T04:25:43;7.05;;;2.63;;
44048;SDS011;29717;47.028;15.470;2023-07-13T04:28:10;5.55;;;2.35;;
44048;SDS011;29717;47.028;15.470;2023-07-13T04:30:38;5.22;;;2.47;;
44048;SDS011;29717;47.028;15.470;2023-07-13T04:33:04;2.65;;;2.45;;
44048;SDS011;29717;47.028;15.470;2023-07-13T04:35:31;3.97;;;2.47;;
44048;SDS011;29717;47.028;15.470;2023-07-13T04:37:57;7.15;;;3.10;;
44048;SDS011;29717;47.028;15.470;2023-07-13T04:40:25;4.72;;;2.63;;
44048;SDS011;29717;47.028;15.470;2023-07-13T04:42:53;3.45;;;2.50;;
44048;SDS011;29717;47.028;15.470;2023-07-13T04:45:19;4.82;;;2.17;;
44048;SDS011;29717;47.028;15.470;2023-07-13T04:47:47;2.47;;;2.20;;
44048;SDS011;29717;47.028;15.470;2023-07-13T04:50:14;4.07;;;2.85;;
44048;SDS011;29717;47.028;15.470;2023-07-13T04:52:45;2.65;;;2.42;;
44048;SDS011;29717;47.028;15.470;2023-07-13T04:55:11;2.60;;;2.40;;
44048;SDS011;29717;47.028;15.470;2023-07-13T04:57:38;2.70;;;2.45;;
44048;SDS011;29717;47.028;15.470;2023-07-13T05:00:05;5.78;;;2.60;;
44048;SDS011;29717;47.028;15.470;2023-07-13T05:02:32;3.00;;;2.00;;
44048;SDS011;29717;47.028;15.470;2023-07-13T05:05:00;5.20;;;2.42;;
44048;SDS011;29717;47.028;15.470;2023-07-13T05:07:27;3.65;;;2.15;;
44048;SDS011;29717;47.028;15.470;2023-07-13T05:09:53;3.83;;;2.30;;
44048;SDS011;29717;47.028;15.470;2023-07-13T05:12:20;4.40;;;1.77;;
44048;SDS011;29717;47.028;15.470;2023-07-13T05:14:46;4.53;;;2.00;;
44048;SDS011;29717;47.028;15.470;2023-07-13T05:17:14;5.35;;;2.50;;
44048;SDS011;29717;47.028;15.470;2023-07-13T05:19:41;2.72;;;2.42;;
44048;SDS011;29717;47.028;15.470;2023-07-13T05:22:09;2.90;;;2.40;;
44048;SDS011;29717;47.028;15.470;2023-07-13T05:24:36;4.68;;;2.10;;
44048;SDS011;29717;47.028;15.470;2023-07-13T05:27:03;2.35;;;2.00;;
44048;SDS011;29717;47.028;15.470;2023-07-13T05:29:29;2.97;;;2.05;;
44048;SDS011;29717;47.028;15.470;2023-07-13T05:31:56;4.53;;;2.20;;
44048;SDS011;29717;47.028;15.470;2023-07-13T05:34:23;2.75;;;2.00;;
44048;SDS011;29717;47.028;15.470;2023-07-13T05:36:50;2.60;;;2.40;;
44048;SDS011;29717;47.028;15.470;2023-07-13T05:39:18;2.55;;;2.22;;
44048;SDS011;29717;47.028;15.470;2023-07-13T05:41:45;3.28;;;2.15;;
44048;SDS011;29717;47.028;15.470;2023-07-13T05:44:11;2.30;;;2.10;;
44048;SDS011;29717;47.028;15.470;2023-07-13T05:46:38;2.25;;;1.77;;
44048;SDS011;29717;47.028;15.470;2023-07-13T05:49:05;2.70;;;1.80;;
44048;SDS011;29717;47.028;15.470;2023-07-13T05:51:31;4.22;;;1.80;;
44048;SDS011;29717;47.028;15.470;2023-07-13T05:53:58;2.28;;;1.70;;
44048;SDS011;29717;47.028;15.470;2023-07-13T05:56:26;2.05;;;1.70;;
44048;SDS011;29717;47.028;15.470;2023-07-13T05:58:52;3.67;;;1.80;;
44048;SDS011;29717;47.028;15.470;2023-07-13T06:01:19;2.85;;;1.98;;
44048;SDS011;29717;47.028;15.470;2023-07-13T06:03:47;3.03;;;1.90;;
44048;SDS011;29717;47.028;15.470;2023-07-13T06:06:14;3.10;;;1.77;;
44048;SDS011;29717;47.028;15.470;2023-07-13T06:08:41;5.60;;;1.73;;
44048;SDS011;29717;47.028;15.470;2023-07-13T06:11:10;2.58;;;1.70;;
44048;SDS011;29717;47.028;15.470;2023-07-13T06:13:40;4.25;;;1.63;;
44048;SDS011;29717;47.028;15.470;2023-07-13T06:16:06;3.70;;;1.80;;
44048;SDS011;29717;47.028;15.470;2023-07-13T06:18:34;4.50;;;1.90;;
44048;SDS011;29717;47.028;15.470;2023-07-13T06:21:01;6.78;;;1.65;;
44048;SDS011;29717;47.028;15.470;2023-07-13T06:23:31;3.40;;;2.10;;
44048;SDS011;29717;47.028;15.470;2023-07-13T06:25:58;3.30;;;1.80;;
44048;SDS011;29717;47.028;15.470;2023-07-13T06:28:24;5.20;;;1.50;;
44048;SDS011;29717;47.028;15.470;2023-07-13T06:30:52;5.78;;;1.70;;
44048;SDS011;29717;47.028;15.470;2023-07-13T06:33:19;2.08;;;1.60;;
44048;SDS011;29717;47.028;15.470;2023-07-13T06:35:45;4.03;;;1.52;;
44048;SDS011;29717;47.028;15.470;2023-07-13T06:38:12;3.22;;;1.50;;
44048;SDS011;29717;47.028;15.470;2023-07-13T06:40:39;1.60;;;1.30;;
44048;SDS011;29717;47.028;15.470;2023-07-13T06:43:05;3.13;;;1.50;;
44048;SDS011;29717;47.028;15.470;2023-07-13T06:45:32;3.53;;;1.30;;
44048;SDS011;29717;47.028;15.470;2023-07-13T06:48:01;3.50;;;1.77;;
44048;SDS011;29717;47.028;15.470;2023-07-13T06:50:28;2.30;;;1.58;;
44048;SDS011;29717;47.028;15.470;2023-07-13T06:52:56;1.88;;;1.42;;
44048;SDS011;29717;47.028;15.470;2023-07-13T06:55:24;1.80;;;1.30;;
44048;SDS011;29717;47.028;15.470;2023-07-13T06:57:51;4.88;;;1.33;;
44048;SDS011;29717;47.028;15.470;2023-07-13T07:00:18;3.75;;;1.15;;
44048;SDS011;29717;47.028;15.470;2023-07-13T07:02:44;4.03;;;1.63;;
44048;SDS011;29717;47.028;15.470;2023-07-13T07:05:12;5.05;;;1.20;;
44048;SDS011;29717;47.028;15.470;2023-07-13T07:07:39;3.22;;;1.77;;
44048;SDS011;29717;47.028;15.470;2023-07-13T07:10:06;1.88;;;1.30;;
44048;SDS011;29717;47.028;15.470;2023-07-13T07:12:33;1.65;;;1.10;;
44048;SDS011;29717;47.028;15.470;2023-07-13T07:15:00;1.70;;;1.30;;
44048;SDS011;29717;47.028;15.470;2023-07-13T07:17:27;3.55;;;1.05;;
44048;SDS011;29717;47.028;15.470;2023-07-13T07:19:53;1.88;;;1.10;;
44048;SDS011;29717;47.028;15.470;2023-07-13T07:22:21;2.22;;;1.23;;
44048;SDS011;29717;47.028;15.470;2023-07-13T07:24:48;3.20;;;1.42;;
44048;SDS011;29717;47.028;15.470;2023-07-13T07:27:15;2.53;;;1.10;;
44048;SDS011;29717;47.028;15.470;2023-07-13T07:29:41;2.47;;;1.00;;
44048;SDS011;29717;47.028;15.470;2023-07-13T07:32:08;2.13;;;1.00;;
44048;SDS011;29717;47.028;15.470;2023-07-13T07:34:34;2.78;;;1.00;;
44048;SDS011;29717;47.028;15.470;2023-07-13T07:37:01;0.95;;;0.85;;
44048;SDS011;29717;47.028;15.470;2023-07-13T07:39:30;1.27;;;0.70;;
44048;SDS011;29717;47.028;15.470;2023-07-13T07:41:56;2.63;;;2.38;;
44048;SDS011;29717;47.028;15.470;2023-07-13T07:44:23;4.60;;;3.05;;
44048;SDS011;29717;47.028;15.470;2023-07-13T07:46:50;1.77;;;1.23;;
44048;SDS011;29717;47.028;15.470;2023-07-13T07:49:17;2.45;;;1.55;;
44048;SDS011;29717;47.028;15.470;2023-07-13T07:51:43;2.83;;;1.30;;
44048;SDS011;29717;47.028;15.470;2023-07-13T07:54:10;1.17;;;0.95;;
44048;SDS011;29717;47.028;15.470;2023-07-13T07:56:38;3.45;;;1.70;;
44048;SDS011;29717;47.028;15.470;2023-07-13T07:59:04;1.98;;;1.40;;
44048;SDS011;29717;47.028;15.470;2023-07-13T08:01:31;3.63;;;1.15;;
44048;SDS011;29717;47.028;15.470;2023-07-13T08:03:58;1.95;;;1.02;;
44048;SDS011;29717;47.028;15.470;2023-07-13T08:06:24;2.30;;;0.90;;
44048;SDS011;29717;47.028;15.470;2023-07-13T08:08:51;0.98;;;0.80;;
44048;SDS011;29717;47.028;15.470;2023-07-13T08:11:17;0.82;;;0.75;;
44048;SDS011;29717;47.028;15.470;2023-07-13T08:13:45;0.75;;;0.70;;
44048;SDS011;29717;47.028;15.470;2023-07-13T08:16:12;2.67;;;0.68;;
44048;SDS011;29717;47.028;15.470;2023-07-13T08:18:38;3.08;;;1.00;;
44048;SDS011;29717;47.028;15.470;2023-07-13T08:21:06;1.92;;;0.82;;
44048;SDS011;29717;47.028;15.470;2023-07-13T08:23:33;1.08;;;0.70;;
44048;SDS011;29717;47.028;15.470;2023-07-13T08:25:59;1.45;;;0.95;;
44048;SDS011;29717;47.028;15.470;2023-07-13T08:28:26;1.60;;;1.02;;
44048;SDS011;29717;47.028;15.470;2023-07-13T08:30:54;1.33;;;1.17;;
44048;SDS011;29717;47.028;15.470;2023-07-13T08:33:22;1.30;;;1.10;;
44048;SDS011;29717;47.028;15.470;2023-07-13T08:35:49;1.42;;;0.88;;
44048;SDS011;29717;47.028;15.470;2023-07-13T08:38:16;3.30;;;0.93;;
44048;SDS011;29717;47.028;15.470;2023-07-13T08:40:43;1.08;;;0.93;;
44048;SDS011;29717;47.028;15.470;2023-07-13T08:43:20;1.15;;;0.80;;
44048;SDS011;29717;47.028;15.470;2023-07-13T08:45:50;1.20;;;1.10;;
44048;SDS011;29717;47.028;15.470;2023-07-13T08:48:20;0.90;;;0.80;;
44048;SDS011;29717;47.028;15.470;2023-07-13T08:50:50;2.15;;;0.70;;
44048;SDS011;29717;47.028;15.470;2023-07-13T08:53:18;1.02;;;0.88;;
44048;SDS011;29717;47.028;15.470;2023-07-13T08:55:45;1.02;;;0.70;;
44048;SDS011;29717;47.028;15.470;2023-07-13T08:58:13;0.93;;;0.93;;
44048;SDS011;29717;47.028;15.470;2023-07-13T09:00:42;2.53;;;0.85;;
44048;SDS011;29717;47.028;15.470;2023-07-13T09:03:12;1.27;;;0.75;;
44048;SDS011;29717;47.028;15.470;2023-07-13T09:05:44;3.72;;;2.80;;
44048;SDS011;29717;47.028;15.470;2023-07-13T09:08:20;2.25;;;1.30;;
44048;SDS011;29717;47.028;15.470;2023-07-13T09:10:52;0.95;;;0.85;;
44048;SDS011;29717;47.028;15.470;2023-07-13T09:13:22;1.08;;;0.98;;
44048;SDS011;29717;47.028;15.470;2023-07-13T09:15:49;1.05;;;0.80;;
44048;SDS011;29717;47.028;15.470;2023-07-13T09:18:18;0.95;;;0.70;;
44048;SDS011;29717;47.028;15.470;2023-07-13T09:20:48;1.55;;;0.70;;
44048;SDS011;29717;47.028;15.470;2023-07-13T09:23:16;1.17;;;0.63;;
44048;SDS011;29717;47.028;15.470;2023-07-13T09:25:45;1.10;;;0.75;;
44048;SDS011;29717;47.028;15.470;2023-07-13T09:28:15;1.85;;;0.60;;
44048;SDS011;29717;47.028;15.470;2023-07-13T09:30:45;0.95;;;0.60;;
44048;SDS011;29717;47.028;15.470;2023-07-13T09:33:14;0.80;;;0.80;;
44048;SDS011;29717;47.028;15.470;2023-07-13T09:35:41;0.93;;;0.75;;
44048;SDS011;29717;47.028;15.470;2023-07-13T09:38:12;1.52;;;0.85;;
44048;SDS011;29717;47.028;15.470;2023-07-13T09:40:42;1.65;;;0.63;;
44048;SDS011;29717;47.028;15.470;2023-07-13T09:43:10;0.77;;;0.70;;
44048;SDS011;29717;47.028;15.470;2023-07-13T09:45:39;2.25;;;0.90;;
44048;SDS011;29717;47.028;15.470;2023-07-13T09:48:07;0.68;;;0.68;;
44048;SDS011;29717;47.028;15.470;2023-07-13T09:50:34;0.77;;;0.70;;
44048;SDS011;29717;47.028;15.470;2023-07-13T09:53:00;2.03;;;0.95;;
44048;SDS011;29717;47.028;15.470;2023-07-13T09:55:30;1.00;;;0.90;;
44048;SDS011;29717;47.028;15.470;2023-07-13T09:58:02;0.80;;;0.70;;
44048;SDS011;29717;47.028;15.470;2023-07-13T10:00:30;2.20;;;0.77;;
44048;SDS011;29717;47.028;15.470;2023-07-13T10:03:01;2.90;;;1.10;;
44048;SDS011;29717;47.028;15.470;2023-07-13T10:05:28;1.08;;;0.80;;
44048;SDS011;29717;47.028;15.470;2023-07-13T10:08:03;0.80;;;0.80;;
44048;SDS011;29717;47.028;15.470;2023-07-13T10:10:34;0.82;;;0.70;;
44048;SDS011;29717;47.028;15.470;2023-07-13T10:13:01;0.98;;;0.70;;
44048;SDS011;29717;47.028;15.470;2023-07-13T10:15:30;0.70;;;0.70;;
44048;SDS011;29717;47.028;15.470;2023-07-13T10:17:57;0.80;;;0.80;;
44048;SDS011;29717;47.028;15.470;2023-07-13T10:20:24;1.10;;;0.80;;
44048;SDS011;29717;47.028;15.470;2023-07-13T10:22:54;1.95;;;0.90;;
44048;SDS011;29717;47.028;15.470;2023-07-13T10:25:23;1.13;;;0.80;;
44048;SDS011;29717;47.028;15.470;2023-07-13T10:27:52;1.98;;;0.82;;
44048;SDS011;29717;47.028;15.470;2023-07-13T10:30:20;2.00;;;0.90;;
44048;SDS011;29717;47.028;15.470;2023-07-13T10:32:50;4.53;;;1.00;;
44048;SDS011;29717;47.028;15.470;2023-07-13T10:35:19;1.23;;;0.80;;
44048;SDS011;29717;47.028;15.470;2023-07-13T10:37:48;2.20;;;1.08;;
44048;SDS011;29717;47.028;15.470;2023-07-13T10:40:16;0.80;;;0.80;;
44048;SDS011;29717;47.028;15.470;2023-07-13T10:42:45;1.77;;;0.80;;
44048;SDS011;29717;47.028;15.470;2023-07-13T10:45:14;2.13;;;1.13;;
44048;SDS011;29717;47.028;15.470;2023-07-13T10:47:42;1.30;;;1.00;;
44048;SDS011;29717;47.028;15.470;2023-07-13T10:50:12;2.65;;;0.88;;
44048;SDS011;29717;47.028;15.470;2023-07-13T10:52:42;0.98;;;0.80;;
44048;SDS011;29717;47.028;15.470;2023-07-13T10:57:51;1.40;;;0.90;;
44048;SDS011;29717;47.028;15.470;2023-07-13T11:00:19;0.93;;;0.80;;
44048;SDS011;29717;47.028;15.470;2023-07-13T11:02:55;1.08;;;0.90;;
44048;SDS011;29717;47.028;15.470;2023-07-13T11:05:26;6.85;;;0.90;;
44048;SDS011;29717;47.028;15.470;2023-07-13T11:07:55;0.90;;;0.80;;
44048;SDS011;29717;47.028;15.470;2023-07-13T11:10:46;0.80;;;0.80;;
44048;SDS011;29717;47.028;15.470;2023-07-13T11:15:56;1.15;;;0.90;;
44048;SDS011;29717;47.028;15.470;2023-07-13T11:18:23;5.57;;;1.00;;
44048;SDS011;29717;47.028;15.470;2023-07-13T11:20:50;2.78;;;0.90;;
44048;SDS011;29717;47.028;15.470;2023-07-13T11:23:28;1.17;;;1.00;;
44048;SDS011;29717;47.028;15.470;2023-07-13T11:25:55;1.13;;;1.00;;
44048;SDS011;29717;47.028;15.470;2023-07-13T11:28:23;0.80;;;0.70;;
44048;SDS011;29717;47.028;15.470;2023-07-13T11:31:00;1.35;;;1.00;;
44048;SDS011;29717;47.028;15.470;2023-07-13T11:33:28;2.58;;;1.10;;
44048;SDS011;29717;47.028;15.470;2023-07-13T11:35:59;1.00;;;0.90;;
44048;SDS011;29717;47.028;15.470;2023-07-13T11:38:31;1.25;;;1.00;;
44048;SDS011;29717;47.028;15.470;2023-07-13T11:40:59;1.60;;;1.10;;
44048;SDS011;29717;47.028;15.470;2023-07-13T11:43:28;1.20;;;1.10;;
44048;SDS011;29717;47.028;15.470;2023-07-13T11:45:55;1.83;;;1.70;;
44048;SDS011;29717;47.028;15.470;2023-07-13T11:48:26;1.20;;;1.10;;
44048;SDS011;29717;47.028;15.470;2023-07-13T11:50:57;1.55;;;0.82;;
44048;SDS011;29717;47.028;15.470;2023-07-13T11:53:26;1.10;;;0.90;;
44048;SDS011;29717;47.028;15.470;2023-07-13T11:55:53;1.17;;;1.05;;
44048;SDS011;29717;47.028;15.470;2023-07-13T11:58:23;1.10;;;1.00;;
44048;SDS011;29717;47.028;15.470;2023-07-13T12:00:50;1.25;;;1.00;;
44048;SDS011;29717;47.028;15.470;2023-07-13T12:03:20;2.03;;;1.20;;
44048;SDS011;29717;47.028;15.470;2023-07-13T12:05:57;1.67;;;1.10;;
44048;SDS011;29717;47.028;15.470;2023-07-13T12:08:25;2.13;;;1.40;;
44048;SDS011;29717;47.028;15.470;2023-07-13T12:11:00;2.25;;;1.10;;
44048;SDS011;29717;47.028;15.470;2023-07-13T12:13:27;2.60;;;1.20;;
44048;SDS011;29717;47.028;15.470;2023-07-13T12:15:55;1.45;;;1.17;;
44048;SDS011;29717;47.028;15.470;2023-07-13T12:18:23;1.15;;;1.00;;
44048;SDS011;29717;47.028;15.470;2023-07-13T12:20:57;4.10;;;1.45;;
44048;SDS011;29717;47.028;15.470;2023-07-13T12:23:25;1.38;;;1.27;;
44048;SDS011;29717;47.028;15.470;2023-07-13T12:25:52;4.25;;;1.20;;
44048;SDS011;29717;47.028;15.470;2023-07-13T12:28:22;2.17;;;1.25;;
44048;SDS011;29717;47.028;15.470;2023-07-13T12:30:49;2.75;;;1.30;;
44048;SDS011;29717;47.028;15.470;2023-07-13T12:33:23;1.60;;;1.40;;
44048;SDS011;29717;47.028;15.470;2023-07-13T12:35:52;1.73;;;1.42;;
44048;SDS011;29717;47.028;15.470;2023-07-13T12:38:21;1.48;;;1.30;;
44048;SDS011;29717;47.028;15.470;2023-07-13T12:40:48;1.40;;;1.30;;
44048;SDS011;29717;47.028;15.470;2023-07-13T12:43:15;1.85;;;1.33;;
44048;SDS011;29717;47.028;15.470;2023-07-13T12:45:54;1.92;;;1.35;;
44048;SDS011;29717;47.028;15.470;2023-07-13T12:48:21;1.60;;;1.50;;
44048;SDS011;29717;47.028;15.470;2023-07-13T12:50:48;7.13;;;1.48;;
44048;SDS011;29717;47.028;15.470;2023-07-13T12:53:17;2.90;;;1.75;;
44048;SDS011;29717;47.028;15.470;2023-07-13T12:55:48;1.52;;;1.40;;
44048;SDS011;29717;47.028;15.470;2023-07-13T12:58:17;1.50;;;1.40;;
44048;SDS011;29717;47.028;15.470;2023-07-13T13:00:48;1.90;;;1.60;;
44048;SDS011;29717;47.028;15.470;2023-07-13T13:03:20;3.35;;;1.60;;
44048;SDS011;29717;47.028;15.470;2023-07-13T13:05:48;2.30;;;1.40;;
44048;SDS011;29717;47.028;15.470;2023-07-13T13:08:14;1.80;;;1.30;;
44048;SDS011;29717;47.028;15.470;2023-07-13T13:10:41;1.90;;;1.70;;
44048;SDS011;29717;47.028;15.470;2023-07-13T13:13:09;3.67;;;1.60;;
44048;SDS011;29717;47.028;15.470;2023-07-13T13:15:37;1.45;;;1.30;;
44048;SDS011;29717;47.028;15.470;2023-07-13T13:18:08;2.55;;;1.98;;
44048;SDS011;29717;47.028;15.470;2023-07-13T13:20:35;1.50;;;1.38;;
44048;SDS011;29717;47.028;15.470;2023-07-13T13:23:02;5.07;;;1.65;;
44048;SDS011;29717;47.028;15.470;2023-07-13T13:25:28;2.08;;;1.48;;
44048;SDS011;29717;47.028;15.470;2023-07-13T13:27:55;2.38;;;1.67;;
44048;SDS011;29717;47.028;15.470;2023-07-13T13:30:23;1.90;;;1.40;;
44048;SDS011;29717;47.028;15.470;2023-07-13T13:32:50;1.83;;;1.40;;
44048;SDS011;29717;47.028;15.470;2023-07-13T13:35:17;1.80;;;1.42;;
44048;SDS011;29717;47.028;15.470;2023-07-13T13:37:44;3.78;;;1.67;;
44048;SDS011;29717;47.028;15.470;2023-07-13T13:40:16;3.03;;;1.88;;
44048;SDS011;29717;47.028;15.470;2023-07-13T13:42:43;2.33;;;1.77;;
44048;SDS011;29717;47.028;15.470;2023-07-13T13:45:10;3.30;;;1.60;;
44048;SDS011;29717;47.028;15.470;2023-07-13T13:47:39;2.53;;;1.83;;
44048;SDS011;29717;47.028;15.470;2023-07-13T13:50:11;3.05;;;2.20;;
44048;SDS011;29717;47.028;15.470;2023-07-13T13:52:38;2.00;;;1.80;;
44048;SDS011;29717;47.028;15.470;2023-07-13T13:55:11;2.30;;;2.10;;
44048;SDS011;29717;47.028;15.470;2023-07-13T13:57:38;5.93;;;2.13;;
44048;SDS011;29717;47.028;15.470;2023-07-13T14:00:05;6.30;;;2.58;;
44048;SDS011;29717;47.028;15.470;2023-07-13T14:02:32;7.97;;;3.00;;
44048;SDS011;29717;47.028;15.470;2023-07-13T14:05:01;5.82;;;2.42;;
44048;SDS011;29717;47.028;15.470;2023-07-13T14:07:27;3.72;;;2.25;;
44048;SDS011;29717;47.028;15.470;2023-07-13T14:09:57;4.10;;;1.90;;
44048;SDS011;29717;47.028;15.470;2023-07-13T14:12:24;2.88;;;2.10;;
44048;SDS011;29717;47.028;15.470;2023-07-13T14:14:53;4.53;;;1.70;;
44048;SDS011;29717;47.028;15.470;2023-07-13T14:17:21;1.88;;;1.48;;
44048;SDS011;29717;47.028;15.470;2023-07-13T14:19:48;2.13;;;1.60;;
44048;SDS011;29717;47.028;15.470;2023-07-13T14:22:23;3.03;;;1.75;;
44048;SDS011;29717;47.028;15.470;2023-07-13T14:24:51;1.63;;;1.20;;
44048;SDS011;29717;47.028;15.470;2023-07-13T14:27:18;3.72;;;1.60;;
44048;SDS011;29717;47.028;15.470;2023-07-13T14:29:45;4.18;;;1.60;;
44048;SDS011;29717;47.028;15.470;2023-07-13T14:32:12;1.35;;;1.25;;
44048;SDS011;29717;47.028;15.470;2023-07-13T14:34:39;2.25;;;1.35;;
44048;SDS011;29717;47.028;15.470;2023-07-13T14:37:08;2.97;;;1.73;;
44048;SDS011;29717;47.028;15.470;2023-07-13T14:39:39;1.75;;;1.40;;
44048;SDS011;29717;47.028;15.470;2023-07-13T14:42:08;2.35;;;1.40;;